Milwaukee, Wisconsin
Traffic Map
Current Weather Conditions
Milwaukee, Wisconsin
Overcast Light Rain
Overcast

Feels Like: -2°
Wind Chill: -2° Ceiling: 300
Heat Index: Visibility: 2mi
Dew Point: Wind: 18mph
Humidity: 93% Direction: 130° (SE)
Pressure: 29.7in Gusts: 0mph
Raw Report DataKMKE 230052Z 13016KT 2SM -RA BR OVC003 03/02 A2970 RMK AO2 SFC VIS 3 SLP065 P0005 T00330022
Traffic Incident Summary
Active as of:
Severity:
Category:
InformationThere was an issue retrieving the traffic information for this location. Please try a different location or try again shortly.
Advertisements
Track Severe Weather on mobile